sensor_id;sensor_type;location;lat;lon;timestamp;P1;durP1;ratioP1;P2;durP2;ratioP2
66874;SDS011;53784;52.630;4.896;2023-05-10T00:00:24;15.02;;;8.93;;
66874;SDS011;53784;52.630;4.896;2023-05-10T00:02:50;14.52;;;8.98;;
66874;SDS011;53784;52.630;4.896;2023-05-10T00:05:15;15.00;;;9.02;;
66874;SDS011;53784;52.630;4.896;2023-05-10T00:07:40;16.48;;;9.57;;
66874;SDS011;53784;52.630;4.896;2023-05-10T00:10:09;15.93;;;9.55;;
66874;SDS011;53784;52.630;4.896;2023-05-10T00:12:35;18.55;;;10.50;;
66874;SDS011;53784;52.630;4.896;2023-05-10T00:15:00;18.23;;;10.10;;
66874;SDS011;53784;52.630;4.896;2023-05-10T00:17:25;18.65;;;10.95;;
66874;SDS011;53784;52.630;4.896;2023-05-10T00:19:51;19.83;;;10.95;;
66874;SDS011;53784;52.630;4.896;2023-05-10T00:22:16;19.33;;;10.68;;
66874;SDS011;53784;52.630;4.896;2023-05-10T00:24:41;18.05;;;10.07;;
66874;SDS011;53784;52.630;4.896;2023-05-10T00:27:07;19.70;;;10.98;;
66874;SDS011;53784;52.630;4.896;2023-05-10T00:29:32;20.17;;;11.05;;
66874;SDS011;53784;52.630;4.896;2023-05-10T00:31:58;20.52;;;11.27;;
66874;SDS011;53784;52.630;4.896;2023-05-10T00:34:23;21.83;;;11.38;;
66874;SDS011;53784;52.630;4.896;2023-05-10T00:36:49;21.90;;;11.27;;
66874;SDS011;53784;52.630;4.896;2023-05-10T00:39:14;20.83;;;11.45;;
66874;SDS011;53784;52.630;4.896;2023-05-10T00:41:40;20.15;;;11.27;;
66874;SDS011;53784;52.630;4.896;2023-05-10T00:44:05;21.23;;;11.65;;
66874;SDS011;53784;52.630;4.896;2023-05-10T00:46:30;20.27;;;11.30;;
66874;SDS011;53784;52.630;4.896;2023-05-10T00:48:56;19.27;;;10.77;;
66874;SDS011;53784;52.630;4.896;2023-05-10T00:51:22;22.20;;;11.32;;
66874;SDS011;53784;52.630;4.896;2023-05-10T00:53:47;21.27;;;11.75;;
66874;SDS011;53784;52.630;4.896;2023-05-10T00:56:13;19.33;;;11.10;;
66874;SDS011;53784;52.630;4.896;2023-05-10T00:58:39;21.30;;;11.23;;
66874;SDS011;53784;52.630;4.896;2023-05-10T01:01:04;18.33;;;11.27;;
66874;SDS011;53784;52.630;4.896;2023-05-10T01:03:31;21.45;;;11.65;;
66874;SDS011;53784;52.630;4.896;2023-05-10T01:05:56;20.58;;;11.30;;
66874;SDS011;53784;52.630;4.896;2023-05-10T01:08:21;18.98;;;10.68;;
66874;SDS011;53784;52.630;4.896;2023-05-10T01:10:47;19.58;;;11.00;;
66874;SDS011;53784;52.630;4.896;2023-05-10T01:13:15;19.65;;;11.27;;
66874;SDS011;53784;52.630;4.896;2023-05-10T01:15:48;17.30;;;10.70;;
66874;SDS011;53784;52.630;4.896;2023-05-10T01:18:13;16.88;;;10.52;;
66874;SDS011;53784;52.630;4.896;2023-05-10T01:20:40;18.67;;;10.68;;
66874;SDS011;53784;52.630;4.896;2023-05-10T01:26:07;18.45;;;10.50;;
66874;SDS011;53784;52.630;4.896;2023-05-10T01:34:20;15.30;;;9.15;;
66874;SDS011;53784;52.630;4.896;2023-05-10T01:36:50;16.63;;;9.90;;
66874;SDS011;53784;52.630;4.896;2023-05-10T01:47:10;18.92;;;9.90;;
66874;SDS011;53784;52.630;4.896;2023-05-10T01:49:38;17.05;;;8.88;;
66874;SDS011;53784;52.630;4.896;2023-05-10T01:52:32;16.48;;;9.48;;
66874;SDS011;53784;52.630;4.896;2023-05-10T01:55:02;17.95;;;10.15;;
66874;SDS011;53784;52.630;4.896;2023-05-10T01:57:32;14.57;;;8.93;;
66874;SDS011;53784;52.630;4.896;2023-05-10T02:00:01;14.73;;;8.80;;
66874;SDS011;53784;52.630;4.896;2023-05-10T02:02:33;13.95;;;8.30;;
66874;SDS011;53784;52.630;4.896;2023-05-10T02:04:59;12.93;;;7.50;;
66874;SDS011;53784;52.630;4.896;2023-05-10T02:07:24;10.85;;;6.50;;
66874;SDS011;53784;52.630;4.896;2023-05-10T02:09:52;10.32;;;6.20;;
66874;SDS011;53784;52.630;4.896;2023-05-10T02:12:17;13.15;;;6.85;;
66874;SDS011;53784;52.630;4.896;2023-05-10T02:14:43;10.25;;;6.45;;
66874;SDS011;53784;52.630;4.896;2023-05-10T02:17:09;12.05;;;7.07;;
66874;SDS011;53784;52.630;4.896;2023-05-10T02:19:36;11.82;;;6.95;;
66874;SDS011;53784;52.630;4.896;2023-05-10T02:22:04;11.70;;;6.95;;
66874;SDS011;53784;52.630;4.896;2023-05-10T02:24:30;13.38;;;7.82;;
66874;SDS011;53784;52.630;4.896;2023-05-10T02:26:56;15.65;;;8.00;;
66874;SDS011;53784;52.630;4.896;2023-05-10T02:29:23;14.77;;;7.85;;
66874;SDS011;53784;52.630;4.896;2023-05-10T02:31:51;16.52;;;7.82;;
66874;SDS011;53784;52.630;4.896;2023-05-10T02:34:18;14.90;;;7.57;;
66874;SDS011;53784;52.630;4.896;2023-05-10T02:36:44;15.35;;;8.35;;
66874;SDS011;53784;52.630;4.896;2023-05-10T02:39:10;16.60;;;8.05;;
66874;SDS011;53784;52.630;4.896;2023-05-10T02:41:37;18.10;;;7.78;;
66874;SDS011;53784;52.630;4.896;2023-05-10T02:44:05;17.10;;;7.60;;
66874;SDS011;53784;52.630;4.896;2023-05-10T02:46:32;20.65;;;7.70;;
66874;SDS011;53784;52.630;4.896;2023-05-10T02:48:58;18.15;;;6.20;;
66874;SDS011;53784;52.630;4.896;2023-05-10T02:51:24;18.63;;;5.38;;
66874;SDS011;53784;52.630;4.896;2023-05-10T02:53:50;18.67;;;4.88;;
66874;SDS011;53784;52.630;4.896;2023-05-10T02:56:25;16.80;;;4.82;;
66874;SDS011;53784;52.630;4.896;2023-05-10T02:58:54;12.43;;;4.40;;
66874;SDS011;53784;52.630;4.896;2023-05-10T03:01:20;12.63;;;4.00;;
66874;SDS011;53784;52.630;4.896;2023-05-10T03:03:45;10.50;;;3.72;;
66874;SDS011;53784;52.630;4.896;2023-05-10T03:06:10;9.48;;;3.22;;
66874;SDS011;53784;52.630;4.896;2023-05-10T03:08:36;8.60;;;3.35;;
66874;SDS011;53784;52.630;4.896;2023-05-10T03:13:33;9.57;;;3.47;;
66874;SDS011;53784;52.630;4.896;2023-05-10T03:16:15;9.05;;;2.97;;
66874;SDS011;53784;52.630;4.896;2023-05-10T03:18:43;7.35;;;3.42;;
66874;SDS011;53784;52.630;4.896;2023-05-10T03:21:10;10.27;;;3.25;;
66874;SDS011;53784;52.630;4.896;2023-05-10T03:23:44;8.93;;;3.30;;
66874;SDS011;53784;52.630;4.896;2023-05-10T03:26:18;8.75;;;3.60;;
66874;SDS011;53784;52.630;4.896;2023-05-10T03:28:45;9.35;;;3.53;;
66874;SDS011;53784;52.630;4.896;2023-05-10T03:31:13;10.52;;;3.83;;
66874;SDS011;53784;52.630;4.896;2023-05-10T03:33:48;10.30;;;3.83;;
66874;SDS011;53784;52.630;4.896;2023-05-10T03:36:13;9.68;;;4.35;;
66874;SDS011;53784;52.630;4.896;2023-05-10T03:38:39;9.32;;;4.03;;
66874;SDS011;53784;52.630;4.896;2023-05-10T03:41:04;12.68;;;4.40;;
66874;SDS011;53784;52.630;4.896;2023-05-10T03:43:29;10.55;;;4.05;;
66874;SDS011;53784;52.630;4.896;2023-05-10T03:45:55;10.45;;;3.97;;
66874;SDS011;53784;52.630;4.896;2023-05-10T03:48:20;10.32;;;4.10;;
66874;SDS011;53784;52.630;4.896;2023-05-10T03:50:45;11.80;;;3.97;;
66874;SDS011;53784;52.630;4.896;2023-05-10T03:53:11;10.93;;;4.18;;
66874;SDS011;53784;52.630;4.896;2023-05-10T03:55:37;10.00;;;4.57;;
66874;SDS011;53784;52.630;4.896;2023-05-10T03:58:02;12.98;;;4.95;;
66874;SDS011;53784;52.630;4.896;2023-05-10T04:00:27;11.05;;;4.38;;
66874;SDS011;53784;52.630;4.896;2023-05-10T04:02:53;11.52;;;4.80;;
66874;SDS011;53784;52.630;4.896;2023-05-10T04:05:18;13.73;;;4.88;;
66874;SDS011;53784;52.630;4.896;2023-05-10T04:07:43;13.65;;;5.07;;
66874;SDS011;53784;52.630;4.896;2023-05-10T04:10:09;14.48;;;5.22;;
66874;SDS011;53784;52.630;4.896;2023-05-10T04:12:35;12.98;;;5.28;;
66874;SDS011;53784;52.630;4.896;2023-05-10T04:15:00;13.70;;;5.80;;
66874;SDS011;53784;52.630;4.896;2023-05-10T04:17:26;13.30;;;5.20;;
66874;SDS011;53784;52.630;4.896;2023-05-10T04:19:51;16.70;;;6.65;;
66874;SDS011;53784;52.630;4.896;2023-05-10T04:22:19;14.07;;;6.15;;
66874;SDS011;53784;52.630;4.896;2023-05-10T04:24:44;14.43;;;5.90;;
66874;SDS011;53784;52.630;4.896;2023-05-10T04:27:10;15.52;;;6.20;;
66874;SDS011;53784;52.630;4.896;2023-05-10T04:29:36;19.08;;;6.65;;
66874;SDS011;53784;52.630;4.896;2023-05-10T04:32:01;15.70;;;6.60;;
66874;SDS011;53784;52.630;4.896;2023-05-10T04:34:27;14.73;;;6.47;;
66874;SDS011;53784;52.630;4.896;2023-05-10T04:36:52;16.88;;;6.75;;
66874;SDS011;53784;52.630;4.896;2023-05-10T04:39:17;16.10;;;6.60;;
66874;SDS011;53784;52.630;4.896;2023-05-10T04:41:43;15.73;;;6.65;;
66874;SDS011;53784;52.630;4.896;2023-05-10T04:44:08;17.98;;;7.43;;
66874;SDS011;53784;52.630;4.896;2023-05-10T04:46:33;16.60;;;7.57;;
66874;SDS011;53784;52.630;4.896;2023-05-10T04:48:59;15.38;;;6.88;;
66874;SDS011;53784;52.630;4.896;2023-05-10T04:51:24;14.15;;;7.15;;
66874;SDS011;53784;52.630;4.896;2023-05-10T04:53:49;14.68;;;6.47;;
66874;SDS011;53784;52.630;4.896;2023-05-10T04:56:15;13.45;;;6.47;;
66874;SDS011;53784;52.630;4.896;2023-05-10T04:58:41;15.10;;;6.35;;
66874;SDS011;53784;52.630;4.896;2023-05-10T05:01:07;12.52;;;6.32;;
66874;SDS011;53784;52.630;4.896;2023-05-10T05:03:34;12.48;;;6.28;;
66874;SDS011;53784;52.630;4.896;2023-05-10T05:05:59;13.93;;;6.97;;
66874;SDS011;53784;52.630;4.896;2023-05-10T05:08:25;12.75;;;6.80;;
66874;SDS011;53784;52.630;4.896;2023-05-10T05:10:50;13.98;;;6.72;;
66874;SDS011;53784;52.630;4.896;2023-05-10T05:13:16;15.18;;;7.43;;
66874;SDS011;53784;52.630;4.896;2023-05-10T05:15:41;15.70;;;6.85;;
66874;SDS011;53784;52.630;4.896;2023-05-10T05:18:06;14.75;;;6.88;;
66874;SDS011;53784;52.630;4.896;2023-05-10T05:20:32;13.82;;;7.40;;
66874;SDS011;53784;52.630;4.896;2023-05-10T05:22:58;13.50;;;6.65;;
66874;SDS011;53784;52.630;4.896;2023-05-10T05:25:24;14.05;;;7.43;;
66874;SDS011;53784;52.630;4.896;2023-05-10T05:27:49;13.70;;;7.30;;
66874;SDS011;53784;52.630;4.896;2023-05-10T05:30:15;14.23;;;7.85;;
66874;SDS011;53784;52.630;4.896;2023-05-10T05:32:40;14.27;;;7.35;;
66874;SDS011;53784;52.630;4.896;2023-05-10T05:35:05;14.70;;;7.75;;
66874;SDS011;53784;52.630;4.896;2023-05-10T05:37:31;16.20;;;8.60;;
66874;SDS011;53784;52.630;4.896;2023-05-10T05:39:57;13.98;;;8.13;;
66874;SDS011;53784;52.630;4.896;2023-05-10T05:42:22;17.30;;;8.82;;
66874;SDS011;53784;52.630;4.896;2023-05-10T05:44:47;16.73;;;8.30;;
66874;SDS011;53784;52.630;4.896;2023-05-10T05:47:13;17.33;;;8.40;;
66874;SDS011;53784;52.630;4.896;2023-05-10T05:49:38;16.98;;;8.85;;
66874;SDS011;53784;52.630;4.896;2023-05-10T05:52:04;16.58;;;8.48;;
66874;SDS011;53784;52.630;4.896;2023-05-10T05:54:29;17.48;;;8.32;;
66874;SDS011;53784;52.630;4.896;2023-05-10T05:56:59;14.70;;;8.43;;
66874;SDS011;53784;52.630;4.896;2023-05-10T05:59:24;14.50;;;8.50;;
66874;SDS011;53784;52.630;4.896;2023-05-10T06:01:50;14.55;;;8.15;;
66874;SDS011;53784;52.630;4.896;2023-05-10T06:04:15;14.43;;;8.20;;
66874;SDS011;53784;52.630;4.896;2023-05-10T06:06:41;14.32;;;8.13;;
66874;SDS011;53784;52.630;4.896;2023-05-10T06:09:07;13.32;;;7.68;;
66874;SDS011;53784;52.630;4.896;2023-05-10T06:11:32;13.68;;;8.18;;
66874;SDS011;53784;52.630;4.896;2023-05-10T06:13:58;13.13;;;7.60;;
66874;SDS011;53784;52.630;4.896;2023-05-10T06:16:24;12.68;;;7.38;;
66874;SDS011;53784;52.630;4.896;2023-05-10T06:18:49;13.98;;;7.13;;
66874;SDS011;53784;52.630;4.896;2023-05-10T06:21:15;12.15;;;7.57;;
66874;SDS011;53784;52.630;4.896;2023-05-10T06:23:41;12.35;;;7.53;;
66874;SDS011;53784;52.630;4.896;2023-05-10T06:26:06;13.98;;;7.47;;
66874;SDS011;53784;52.630;4.896;2023-05-10T06:28:31;12.82;;;7.82;;
66874;SDS011;53784;52.630;4.896;2023-05-10T06:30:58;14.30;;;7.78;;
66874;SDS011;53784;52.630;4.896;2023-05-10T06:33:23;13.93;;;7.60;;
66874;SDS011;53784;52.630;4.896;2023-05-10T06:35:49;13.30;;;7.25;;
66874;SDS011;53784;52.630;4.896;2023-05-10T06:38:14;13.43;;;7.50;;
66874;SDS011;53784;52.630;4.896;2023-05-10T06:40:43;11.60;;;6.95;;
66874;SDS011;53784;52.630;4.896;2023-05-10T06:43:09;14.05;;;7.18;;
66874;SDS011;53784;52.630;4.896;2023-05-10T06:45:35;13.07;;;7.22;;
66874;SDS011;53784;52.630;4.896;2023-05-10T06:48:00;14.02;;;6.55;;
66874;SDS011;53784;52.630;4.896;2023-05-10T06:50:26;11.80;;;6.18;;
66874;SDS011;53784;52.630;4.896;2023-05-10T06:52:51;12.88;;;7.25;;
66874;SDS011;53784;52.630;4.896;2023-05-10T06:55:17;11.93;;;6.88;;
66874;SDS011;53784;52.630;4.896;2023-05-10T06:57:42;12.10;;;6.90;;
66874;SDS011;53784;52.630;4.896;2023-05-10T07:00:08;11.10;;;6.18;;
66874;SDS011;53784;52.630;4.896;2023-05-10T07:02:34;11.85;;;7.00;;
66874;SDS011;53784;52.630;4.896;2023-05-10T07:05:00;13.38;;;7.30;;
66874;SDS011;53784;52.630;4.896;2023-05-10T07:07:25;14.10;;;7.22;;
66874;SDS011;53784;52.630;4.896;2023-05-10T07:09:50;12.75;;;7.20;;
66874;SDS011;53784;52.630;4.896;2023-05-10T07:12:16;12.75;;;7.75;;
66874;SDS011;53784;52.630;4.896;2023-05-10T07:14:41;11.88;;;7.03;;
66874;SDS011;53784;52.630;4.896;2023-05-10T07:17:07;12.30;;;7.32;;
66874;SDS011;53784;52.630;4.896;2023-05-10T07:19:32;16.52;;;8.07;;
66874;SDS011;53784;52.630;4.896;2023-05-10T07:21:57;13.23;;;7.68;;
66874;SDS011;53784;52.630;4.896;2023-05-10T07:24:23;13.35;;;7.80;;
66874;SDS011;53784;52.630;4.896;2023-05-10T07:26:49;14.20;;;8.48;;
66874;SDS011;53784;52.630;4.896;2023-05-10T07:29:14;14.48;;;7.35;;
66874;SDS011;53784;52.630;4.896;2023-05-10T07:31:39;14.38;;;7.82;;
66874;SDS011;53784;52.630;4.896;2023-05-10T07:34:06;13.05;;;7.38;;
66874;SDS011;53784;52.630;4.896;2023-05-10T07:36:32;10.73;;;6.53;;
66874;SDS011;53784;52.630;4.896;2023-05-10T07:38:57;13.40;;;7.72;;
66874;SDS011;53784;52.630;4.896;2023-05-10T07:41:23;16.40;;;8.18;;
66874;SDS011;53784;52.630;4.896;2023-05-10T07:43:48;13.63;;;7.50;;
66874;SDS011;53784;52.630;4.896;2023-05-10T07:46:13;12.18;;;7.15;;
66874;SDS011;53784;52.630;4.896;2023-05-10T07:48:39;11.82;;;7.13;;
66874;SDS011;53784;52.630;4.896;2023-05-10T07:51:04;12.18;;;7.05;;
66874;SDS011;53784;52.630;4.896;2023-05-10T07:53:31;10.98;;;6.57;;
66874;SDS011;53784;52.630;4.896;2023-05-10T07:55:57;12.73;;;7.75;;
66874;SDS011;53784;52.630;4.896;2023-05-10T07:58:23;11.50;;;7.47;;
66874;SDS011;53784;52.630;4.896;2023-05-10T08:00:49;11.45;;;7.25;;
66874;SDS011;53784;52.630;4.896;2023-05-10T08:03:14;10.88;;;6.68;;
66874;SDS011;53784;52.630;4.896;2023-05-10T08:05:40;9.30;;;6.22;;
66874;SDS011;53784;52.630;4.896;2023-05-10T08:08:05;10.25;;;6.70;;
66874;SDS011;53784;52.630;4.896;2023-05-10T08:10:31;10.88;;;6.82;;
66874;SDS011;53784;52.630;4.896;2023-05-10T08:12:56;10.82;;;6.50;;
66874;SDS011;53784;52.630;4.896;2023-05-10T08:15:23;10.63;;;6.43;;
66874;SDS011;53784;52.630;4.896;2023-05-10T08:17:48;10.57;;;6.25;;
66874;SDS011;53784;52.630;4.896;2023-05-10T08:20:14;10.68;;;6.28;;
66874;SDS011;53784;52.630;4.896;2023-05-10T08:22:41;11.52;;;6.40;;
66874;SDS011;53784;52.630;4.896;2023-05-10T08:25:07;9.23;;;5.85;;
66874;SDS011;53784;52.630;4.896;2023-05-10T08:27:32;9.23;;;6.03;;
66874;SDS011;53784;52.630;4.896;2023-05-10T08:29:58;10.45;;;5.70;;
66874;SDS011;53784;52.630;4.896;2023-05-10T08:32:23;8.55;;;5.55;;
66874;SDS011;53784;52.630;4.896;2023-05-10T08:34:48;8.07;;;5.30;;
66874;SDS011;53784;52.630;4.896;2023-05-10T08:37:13;7.60;;;5.40;;
66874;SDS011;53784;52.630;4.896;2023-05-10T08:39:39;8.27;;;5.60;;
66874;SDS011;53784;52.630;4.896;2023-05-10T08:42:05;7.40;;;5.13;;
66874;SDS011;53784;52.630;4.896;2023-05-10T08:44:32;8.38;;;5.50;;
66874;SDS011;53784;52.630;4.896;2023-05-10T08:46:57;7.68;;;5.40;;
66874;SDS011;53784;52.630;4.896;2023-05-10T08:49:24;9.43;;;5.70;;
66874;SDS011;53784;52.630;4.896;2023-05-10T08:51:54;8.45;;;5.25;;
66874;SDS011;53784;52.630;4.896;2023-05-10T08:54:19;8.00;;;5.03;;
66874;SDS011;53784;52.630;4.896;2023-05-10T08:56:46;8.40;;;5.15;;
66874;SDS011;53784;52.630;4.896;2023-05-10T08:59:11;6.53;;;4.85;;
66874;SDS011;53784;52.630;4.896;2023-05-10T09:01:38;8.43;;;4.95;;
66874;SDS011;53784;52.630;4.896;2023-05-10T09:04:04;7.68;;;4.65;;
66874;SDS011;53784;52.630;4.896;2023-05-10T09:06:29;7.88;;;5.20;;
66874;SDS011;53784;52.630;4.896;2023-05-10T09:08:54;7.18;;;4.80;;
66874;SDS011;53784;52.630;4.896;2023-05-10T09:11:20;8.18;;;5.05;;
66874;SDS011;53784;52.630;4.896;2023-05-10T09:13:46;8.35;;;5.15;;
66874;SDS011;53784;52.630;4.896;2023-05-10T09:16:13;7.10;;;4.85;;
66874;SDS011;53784;52.630;4.896;2023-05-10T09:18:38;9.13;;;5.60;;
66874;SDS011;53784;52.630;4.896;2023-05-10T09:21:03;9.63;;;5.65;;
66874;SDS011;53784;52.630;4.896;2023-05-10T09:23:29;10.23;;;6.50;;
66874;SDS011;53784;52.630;4.896;2023-05-10T09:26:06;13.25;;;7.28;;
66874;SDS011;53784;52.630;4.896;2023-05-10T09:28:49;10.55;;;6.78;;
66874;SDS011;53784;52.630;4.896;2023-05-10T09:31:24;10.40;;;5.72;;
66874;SDS011;53784;52.630;4.896;2023-05-10T09:34:08;12.55;;;7.10;;
66874;SDS011;53784;52.630;4.896;2023-05-10T09:36:33;11.65;;;6.38;;
66874;SDS011;53784;52.630;4.896;2023-05-10T09:38:59;9.43;;;5.82;;
66874;SDS011;53784;52.630;4.896;2023-05-10T09:41:24;9.65;;;5.78;;
66874;SDS011;53784;52.630;4.896;2023-05-10T09:43:55;11.05;;;5.95;;
66874;SDS011;53784;52.630;4.896;2023-05-10T09:46:21;10.90;;;6.15;;
66874;SDS011;53784;52.630;4.896;2023-05-10T09:48:47;10.77;;;6.45;;
66874;SDS011;53784;52.630;4.896;2023-05-10T09:51:22;9.82;;;5.90;;
66874;SDS011;53784;52.630;4.896;2023-05-10T09:53:50;9.10;;;4.75;;
66874;SDS011;53784;52.630;4.896;2023-05-10T09:56:35;7.80;;;4.93;;
66874;SDS011;53784;52.630;4.896;2023-05-10T09:59:04;8.05;;;5.63;;
66874;SDS011;53784;52.630;4.896;2023-05-10T10:01:29;8.05;;;5.15;;
66874;SDS011;53784;52.630;4.896;2023-05-10T10:03:55;8.63;;;5.25;;
66874;SDS011;53784;52.630;4.896;2023-05-10T10:06:22;9.05;;;5.50;;
66874;SDS011;53784;52.630;4.896;2023-05-10T10:08:48;10.05;;;6.55;;
66874;SDS011;53784;52.630;4.896;2023-05-10T10:11:13;10.88;;;7.15;;
66874;SDS011;53784;52.630;4.896;2023-05-10T10:13:39;11.02;;;7.55;;
66874;SDS011;53784;52.630;4.896;2023-05-10T10:16:04;9.93;;;6.70;;
66874;SDS011;53784;52.630;4.896;2023-05-10T10:18:30;10.43;;;6.55;;
66874;SDS011;53784;52.630;4.896;2023-05-10T10:20:55;11.68;;;7.28;;
66874;SDS011;53784;52.630;4.896;2023-05-10T10:23:21;11.50;;;6.65;;
66874;SDS011;53784;52.630;4.896;2023-05-10T10:25:46;10.90;;;6.93;;
66874;SDS011;53784;52.630;4.896;2023-05-10T10:28:29;9.98;;;6.20;;
66874;SDS011;53784;52.630;4.896;2023-05-10T10:31:03;10.00;;;6.28;;
66874;SDS011;53784;52.630;4.896;2023-05-10T10:33:55;11.90;;;7.18;;
66874;SDS011;53784;52.630;4.896;2023-05-10T10:36:25;10.45;;;7.25;;
66874;SDS011;53784;52.630;4.896;2023-05-10T10:41:34;8.60;;;6.07;;
66874;SDS011;53784;52.630;4.896;2023-05-10T10:47:07;11.02;;;7.45;;
66874;SDS011;53784;52.630;4.896;2023-05-10T10:50:02;10.60;;;6.60;;
66874;SDS011;53784;52.630;4.896;2023-05-10T10:52:39;10.23;;;7.03;;
66874;SDS011;53784;52.630;4.896;2023-05-10T11:02:52;11.30;;;7.20;;
66874;SDS011;53784;52.630;4.896;2023-05-10T11:07:55;9.05;;;6.70;;
66874;SDS011;53784;52.630;4.896;2023-05-10T11:10:23;8.48;;;5.38;;
66874;SDS011;53784;52.630;4.896;2023-05-10T11:12:52;8.68;;;5.97;;
66874;SDS011;53784;52.630;4.896;2023-05-10T11:15:19;8.68;;;6.03;;
66874;SDS011;53784;52.630;4.896;2023-05-10T11:17:45;8.30;;;5.85;;
66874;SDS011;53784;52.630;4.896;2023-05-10T11:20:15;7.25;;;5.43;;
66874;SDS011;53784;52.630;4.896;2023-05-10T11:22:53;7.53;;;5.25;;
66874;SDS011;53784;52.630;4.896;2023-05-10T11:25:26;8.23;;;5.18;;
66874;SDS011;53784;52.630;4.896;2023-05-10T11:27:53;7.40;;;5.22;;
66874;SDS011;53784;52.630;4.896;2023-05-10T11:30:18;7.25;;;5.50;;
66874;SDS011;53784;52.630;4.896;2023-05-10T11:32:44;8.77;;;5.32;;
66874;SDS011;53784;52.630;4.896;2023-05-10T11:35:10;6.15;;;4.00;;
66874;SDS011;53784;52.630;4.896;2023-05-10T11:37:36;6.35;;;4.28;;
66874;SDS011;53784;52.630;4.896;2023-05-10T11:40:06;6.97;;;4.35;;
66874;SDS011;53784;52.630;4.896;2023-05-10T11:42:38;5.07;;;3.63;;
66874;SDS011;53784;52.630;4.896;2023-05-10T11:45:03;6.03;;;3.80;;
66874;SDS011;53784;52.630;4.896;2023-05-10T11:47:29;7.43;;;4.28;;
66874;SDS011;53784;52.630;4.896;2023-05-10T11:49:55;6.15;;;3.88;;
66874;SDS011;53784;52.630;4.896;2023-05-10T11:52:20;6.40;;;3.90;;
66874;SDS011;53784;52.630;4.896;2023-05-10T11:54:52;6.05;;;4.07;;
66874;SDS011;53784;52.630;4.896;2023-05-10T11:57:20;7.88;;;4.10;;
66874;SDS011;53784;52.630;4.896;2023-05-10T11:59:46;6.18;;;3.72;;
66874;SDS011;53784;52.630;4.896;2023-05-10T12:02:15;5.57;;;4.00;;
66874;SDS011;53784;52.630;4.896;2023-05-10T12:04:40;6.43;;;3.70;;
66874;SDS011;53784;52.630;4.896;2023-05-10T12:07:06;6.15;;;3.53;;
66874;SDS011;53784;52.630;4.896;2023-05-10T12:09:32;6.20;;;3.88;;
66874;SDS011;53784;52.630;4.896;2023-05-10T12:11:57;5.10;;;3.08;;
66874;SDS011;53784;52.630;4.896;2023-05-10T12:14:22;4.85;;;3.05;;
66874;SDS011;53784;52.630;4.896;2023-05-10T12:16:49;4.70;;;3.10;;
66874;SDS011;53784;52.630;4.896;2023-05-10T12:19:18;5.82;;;3.50;;
66874;SDS011;53784;52.630;4.896;2023-05-10T12:21:44;4.53;;;2.90;;
66874;SDS011;53784;52.630;4.896;2023-05-10T12:24:09;5.00;;;2.85;;
66874;SDS011;53784;52.630;4.896;2023-05-10T12:26:35;6.90;;;3.08;;
66874;SDS011;53784;52.630;4.896;2023-05-10T12:29:19;5.88;;;3.05;;
66874;SDS011;53784;52.630;4.896;2023-05-10T12:31:55;4.68;;;2.88;;
66874;SDS011;53784;52.630;4.896;2023-05-10T12:34:24;4.25;;;2.80;;
66874;SDS011;53784;52.630;4.896;2023-05-10T12:36:55;4.97;;;2.70;;
66874;SDS011;53784;52.630;4.896;2023-05-10T12:39:20;4.63;;;2.80;;
66874;SDS011;53784;52.630;4.896;2023-05-10T12:41:46;6.05;;;2.92;;
66874;SDS011;53784;52.630;4.896;2023-05-10T12:44:11;4.97;;;3.25;;
66874;SDS011;53784;52.630;4.896;2023-05-10T12:46:37;7.65;;;4.22;;
66874;SDS011;53784;52.630;4.896;2023-05-10T12:49:02;5.70;;;4.00;;
66874;SDS011;53784;52.630;4.896;2023-05-10T12:51:27;7.03;;;4.78;;
66874;SDS011;53784;52.630;4.896;2023-05-10T12:53:52;7.05;;;4.43;;
66874;SDS011;53784;52.630;4.896;2023-05-10T12:56:19;7.45;;;4.78;;
66874;SDS011;53784;52.630;4.896;2023-05-10T12:58:45;6.13;;;3.65;;
66874;SDS011;53784;52.630;4.896;2023-05-10T13:01:13;6.15;;;3.88;;
66874;SDS011;53784;52.630;4.896;2023-05-10T13:03:40;7.65;;;3.90;;
66874;SDS011;53784;52.630;4.896;2023-05-10T13:06:05;6.20;;;4.00;;
66874;SDS011;53784;52.630;4.896;2023-05-10T13:08:31;6.75;;;4.40;;
66874;SDS011;53784;52.630;4.896;2023-05-10T13:10:58;6.78;;;4.70;;
66874;SDS011;53784;52.630;4.896;2023-05-10T13:13:24;9.77;;;5.45;;
66874;SDS011;53784;52.630;4.896;2023-05-10T13:15:49;5.45;;;3.67;;
66874;SDS011;53784;52.630;4.896;2023-05-10T13:18:15;5.75;;;3.83;;
66874;SDS011;53784;52.630;4.896;2023-05-10T13:20:40;6.28;;;4.30;;
66874;SDS011;53784;52.630;4.896;2023-05-10T13:23:05;6.28;;;4.85;;
66874;SDS011;53784;52.630;4.896;2023-05-10T13:25:31;6.78;;;4.25;;
66874;SDS011;53784;52.630;4.896;2023-05-10T13:27:56;5.88;;;4.22;;
66874;SDS011;53784;52.630;4.896;2023-05-10T13:30:21;6.95;;;3.70;;
66874;SDS011;53784;52.630;4.896;2023-05-10T13:32:48;5.75;;;3.17;;
66874;SDS011;53784;52.630;4.896;2023-05-10T13:35:13;5.28;;;2.83;;
66874;SDS011;53784;52.630;4.896;2023-05-10T13:37:39;4.93;;;3.00;;
66874;SDS011;53784;52.630;4.896;2023-05-10T13:40:04;4.35;;;2.58;;
66874;SDS011;53784;52.630;4.896;2023-05-10T13:42:31;4.80;;;2.63;;
66874;SDS011;53784;52.630;4.896;2023-05-10T13:44:58;4.72;;;2.63;;
66874;SDS011;53784;52.630;4.896;2023-05-10T13:47:23;4.60;;;2.30;;
66874;SDS011;53784;52.630;4.896;2023-05-10T13:49:49;5.10;;;2.50;;
66874;SDS011;53784;52.630;4.896;2023-05-10T13:52:14;4.50;;;2.90;;
66874;SDS011;53784;52.630;4.896;2023-05-10T13:54:39;4.72;;;2.33;;
66874;SDS011;53784;52.630;4.896;2023-05-10T13:57:05;3.47;;;2.55;;
66874;SDS011;53784;52.630;4.896;2023-05-10T13:59:31;3.85;;;2.45;;
66874;SDS011;53784;52.630;4.896;2023-05-10T14:01:57;3.88;;;2.50;;
66874;SDS011;53784;52.630;4.896;2023-05-10T14:04:23;4.95;;;2.38;;
66874;SDS011;53784;52.630;4.896;2023-05-10T14:06:49;4.30;;;2.40;;
66874;SDS011;53784;52.630;4.896;2023-05-10T14:09:14;3.75;;;2.67;;
66874;SDS011;53784;52.630;4.896;2023-05-10T14:11:39;5.30;;;2.25;;
66874;SDS011;53784;52.630;4.896;2023-05-10T14:14:08;4.20;;;2.30;;
66874;SDS011;53784;52.630;4.896;2023-05-10T14:16:36;4.28;;;2.20;;
66874;SDS011;53784;52.630;4.896;2023-05-10T14:19:01;4.03;;;2.15;;
66874;SDS011;53784;52.630;4.896;2023-05-10T14:21:27;4.28;;;2.22;;
66874;SDS011;53784;52.630;4.896;2023-05-10T14:23:54;3.67;;;2.15;;
66874;SDS011;53784;52.630;4.896;2023-05-10T14:26:20;5.20;;;2.10;;
66874;SDS011;53784;52.630;4.896;2023-05-10T14:28:46;3.50;;;1.98;;
66874;SDS011;53784;52.630;4.896;2023-05-10T14:31:11;3.92;;;2.00;;
66874;SDS011;53784;52.630;4.896;2023-05-10T14:33:37;3.20;;;1.73;;
66874;SDS011;53784;52.630;4.896;2023-05-10T14:36:02;3.55;;;1.83;;
66874;SDS011;53784;52.630;4.896;2023-05-10T14:38:28;3.75;;;1.90;;
66874;SDS011;53784;52.630;4.896;2023-05-10T14:40:54;4.20;;;1.90;;
66874;SDS011;53784;52.630;4.896;2023-05-10T14:43:19;4.25;;;1.85;;
66874;SDS011;53784;52.630;4.896;2023-05-10T14:45:45;3.33;;;1.83;;
66874;SDS011;53784;52.630;4.896;2023-05-10T14:48:10;3.53;;;1.80;;
66874;SDS011;53784;52.630;4.896;2023-05-10T14:50:40;4.05;;;1.95;;
66874;SDS011;53784;52.630;4.896;2023-05-10T14:53:05;3.47;;;1.90;;
66874;SDS011;53784;52.630;4.896;2023-05-10T14:55:30;5.45;;;1.83;;
66874;SDS011;53784;52.630;4.896;2023-05-10T14:57:56;4.18;;;1.98;;
66874;SDS011;53784;52.630;4.896;2023-05-10T15:00:22;5.57;;;2.30;;
66874;SDS011;53784;52.630;4.896;2023-05-10T15:02:47;3.85;;;2.10;;
66874;SDS011;53784;52.630;4.896;2023-05-10T15:05:13;4.38;;;2.10;;
66874;SDS011;53784;52.630;4.896;2023-05-10T15:07:38;3.35;;;1.90;;
66874;SDS011;53784;52.630;4.896;2023-05-10T15:10:04;3.78;;;2.20;;